createdAt,value
2023-12-10T00:01:03.578Z,18.40
2023-12-10T00:03:31.916Z,19.77
2023-12-10T00:06:07.192Z,17.65
2023-12-10T00:08:41.674Z,18.85
2023-12-10T00:11:09.081Z,21.52
2023-12-10T00:13:36.462Z,19.35
2023-12-10T00:16:03.344Z,19.50
2023-12-10T00:18:31.538Z,16.70
2023-12-10T00:20:58.739Z,19.83
2023-12-10T00:23:25.750Z,16.98
2023-12-10T00:25:52.649Z,19.13
2023-12-10T00:28:19.598Z,15.10
2023-12-10T00:30:48.834Z,18.80
2023-12-10T00:33:17.432Z,16.55
2023-12-10T00:35:44.627Z,14.95
2023-12-10T00:38:13.669Z,15.68
2023-12-10T00:40:40.974Z,17.63
2023-12-10T00:43:07.981Z,16.38
2023-12-10T00:45:37.051Z,15.55
2023-12-10T00:48:07.585Z,15.35
2023-12-10T00:50:34.966Z,18.35
2023-12-10T00:53:05.170Z,15.60
2023-12-10T00:55:32.414Z,15.27
2023-12-10T00:57:59.430Z,16.80
2023-12-10T01:00:26.316Z,15.23
2023-12-10T01:02:53.699Z,14.18
2023-12-10T01:05:20.786Z,14.95
2023-12-10T01:07:50.208Z,16.33
2023-12-10T01:10:17.118Z,13.23
2023-12-10T01:12:46.295Z,16.23
2023-12-10T01:15:13.658Z,16.67
2023-12-10T01:17:43.211Z,13.20
2023-12-10T01:20:10.862Z,14.48
2023-12-10T01:22:38.690Z,12.45
2023-12-10T01:25:06.298Z,13.73
2023-12-10T01:27:33.468Z,14.27
2023-12-10T01:30:00.473Z,12.82
2023-12-10T01:32:27.688Z,13.98
2023-12-10T01:34:55.021Z,11.35
2023-12-10T01:37:22.520Z,13.73
2023-12-10T01:39:51.014Z,13.95
2023-12-10T01:42:18.502Z,13.75
2023-12-10T01:44:45.314Z,12.93
2023-12-10T01:47:13.456Z,15.18
2023-12-10T01:49:40.720Z,13.00
2023-12-10T01:52:09.163Z,14.23
2023-12-10T01:54:41.271Z,11.15
2023-12-10T01:57:09.174Z,11.30
2023-12-10T01:59:37.721Z,14.15
2023-12-10T02:02:06.883Z,13.18
2023-12-10T02:04:33.725Z,11.18
2023-12-10T02:07:01.415Z,13.25
2023-12-10T02:09:28.548Z,9.50
2023-12-10T02:11:55.963Z,12.75
2023-12-10T02:14:23.016Z,11.88
2023-12-10T02:16:51.099Z,9.70
2023-12-10T02:19:18.499Z,12.02
2023-12-10T02:21:47.786Z,10.07
2023-12-10T02:24:22.396Z,12.90
2023-12-10T02:26:49.600Z,12.13
2023-12-10T02:29:17.478Z,11.85
2023-12-10T02:31:44.461Z,13.07
2023-12-10T02:34:11.425Z,11.38
2023-12-10T02:36:38.917Z,13.05
2023-12-10T02:39:07.685Z,12.85
2023-12-10T02:41:34.756Z,11.95
2023-12-10T02:44:01.642Z,11.45
2023-12-10T02:46:28.615Z,12.75
2023-12-10T02:48:56.656Z,11.98
2023-12-10T02:51:23.584Z,11.40
2023-12-10T02:53:51.534Z,11.88
2023-12-10T02:56:19.621Z,11.65
2023-12-10T02:58:46.462Z,8.48
2023-12-10T03:01:13.817Z,12.65
2023-12-10T03:03:40.964Z,12.23
2023-12-10T03:06:08.655Z,12.48
2023-12-10T03:08:36.851Z,12.35
2023-12-10T03:11:03.707Z,12.50
2023-12-10T03:13:31.842Z,12.70
2023-12-10T03:15:59.294Z,13.10
2023-12-10T03:18:27.895Z,12.57
2023-12-10T03:20:55.086Z,12.70
2023-12-10T03:23:22.458Z,12.20
2023-12-10T03:25:49.507Z,11.27
2023-12-10T03:28:16.439Z,9.90
2023-12-10T03:30:43.465Z,10.38
2023-12-10T03:33:11.540Z,12.20
2023-12-10T03:35:38.843Z,12.55
2023-12-10T03:38:05.716Z,11.68
2023-12-10T03:40:32.717Z,12.93
2023-12-10T03:42:59.846Z,12.23
2023-12-10T03:45:27.081Z,11.82
2023-12-10T03:47:56.074Z,12.82
2023-12-10T03:50:23.095Z,11.65
2023-12-10T03:52:50.017Z,13.60
2023-12-10T03:55:18.373Z,12.95
2023-12-10T03:57:47.425Z,12.10
2023-12-10T04:00:14.640Z,13.50
2023-12-10T04:02:41.907Z,13.10
2023-12-10T04:05:13.762Z,13.23
2023-12-10T04:07:42.039Z,12.63
2023-12-10T04:10:10.669Z,13.95
2023-12-10T04:12:39.109Z,13.55
2023-12-10T04:15:07.022Z,13.07
2023-12-10T04:17:34.431Z,12.85
2023-12-10T04:20:01.930Z,14.70
2023-12-10T04:22:29.494Z,15.13
2023-12-10T04:24:56.832Z,15.35
2023-12-10T04:27:24.512Z,16.27
2023-12-10T04:29:52.485Z,17.90
2023-12-10T04:32:19.553Z,16.75
2023-12-10T04:34:54.022Z,15.32
2023-12-10T04:37:21.167Z,14.85
2023-12-10T04:39:49.693Z,16.52
2023-12-10T04:44:47.089Z,16.15
2023-12-10T04:47:14.981Z,19.40
2023-12-10T04:49:42.431Z,14.43
2023-12-10T04:52:09.879Z,16.85
2023-12-10T04:54:37.073Z,18.58
2023-12-10T04:57:04.699Z,20.08
2023-12-10T04:59:32.008Z,18.00
2023-12-10T05:01:58.801Z,19.83
2023-12-10T05:04:26.271Z,19.13
2023-12-10T05:06:56.228Z,19.55
2023-12-10T05:09:23.289Z,19.05
2023-12-10T05:11:50.201Z,16.70
2023-12-10T05:14:17.178Z,17.98
2023-12-10T05:16:47.018Z,17.00
2023-12-10T05:19:14.215Z,16.85
2023-12-10T05:21:41.321Z,16.27
2023-12-10T05:24:09.751Z,15.00
2023-12-10T05:26:39.404Z,14.75
2023-12-10T05:29:07.618Z,13.23
2023-12-10T05:31:35.595Z,12.18
2023-12-10T05:34:02.697Z,13.30
2023-12-10T05:36:31.145Z,13.70
2023-12-10T05:38:59.019Z,10.32
2023-12-10T05:41:26.111Z,12.50
2023-12-10T05:43:52.865Z,11.25
2023-12-10T05:46:20.221Z,11.13
2023-12-10T05:48:47.430Z,10.82
2023-12-10T05:51:16.902Z,10.73
2023-12-10T05:53:44.297Z,10.00
2023-12-10T05:56:11.284Z,9.27
2023-12-10T05:58:38.148Z,10.00
2023-12-10T06:01:05.322Z,7.57
2023-12-10T06:03:32.848Z,8.70
2023-12-10T06:06:01.394Z,8.73
2023-12-10T06:08:30.436Z,9.45
2023-12-10T06:10:58.540Z,9.05
2023-12-10T06:13:27.683Z,7.68
2023-12-10T06:15:59.000Z,7.65
2023-12-10T06:18:26.054Z,8.18
2023-12-10T06:20:52.905Z,8.27
2023-12-10T06:23:20.935Z,8.38
2023-12-10T06:25:49.972Z,8.13
2023-12-10T06:28:16.819Z,8.55
2023-12-10T06:30:43.790Z,7.75
2023-12-10T06:33:10.859Z,7.68
2023-12-10T06:35:38.294Z,7.53
2023-12-10T06:38:05.103Z,7.25
2023-12-10T06:40:33.018Z,7.68
2023-12-10T06:43:02.204Z,7.50
2023-12-10T06:45:29.667Z,7.57
2023-12-10T06:47:56.491Z,7.50
2023-12-10T06:50:27.727Z,8.00
2023-12-10T06:52:54.929Z,8.05
2023-12-10T06:55:21.881Z,8.02
2023-12-10T06:57:54.410Z,8.20
2023-12-10T07:00:22.559Z,8.00
2023-12-10T07:02:52.857Z,8.20
2023-12-10T07:05:19.837Z,8.68
2023-12-10T07:07:46.839Z,8.90
2023-12-10T07:10:15.907Z,7.35
2023-12-10T07:12:42.941Z,8.95
2023-12-10T07:15:10.762Z,8.93
2023-12-10T07:17:39.055Z,9.75
2023-12-10T07:20:10.725Z,9.10
2023-12-10T07:22:38.632Z,9.05
2023-12-10T07:25:08.379Z,9.02
2023-12-10T07:27:40.489Z,8.68
2023-12-10T07:30:09.211Z,9.07
2023-12-10T07:32:36.334Z,9.35
2023-12-10T07:35:04.934Z,9.00
2023-12-10T07:37:32.302Z,8.30
2023-12-10T07:40:00.391Z,8.77
2023-12-10T07:42:28.313Z,8.93
2023-12-10T07:44:55.999Z,9.57
2023-12-10T07:47:23.049Z,9.15
2023-12-10T07:49:57.096Z,9.65
2023-12-10T07:52:24.206Z,9.25
2023-12-10T07:54:56.171Z,9.00
2023-12-10T07:57:24.457Z,10.25
2023-12-10T07:59:51.558Z,9.00
2023-12-10T08:02:19.573Z,9.38
2023-12-10T08:04:46.802Z,9.50
2023-12-10T08:07:14.137Z,8.65
2023-12-10T08:09:42.153Z,9.45
2023-12-10T08:12:09.557Z,9.10
2023-12-10T08:14:36.778Z,9.40
2023-12-10T08:17:06.877Z,8.52
2023-12-10T08:19:34.192Z,8.88
2023-12-10T08:22:03.096Z,8.88
2023-12-10T08:24:30.233Z,8.75
2023-12-10T08:26:57.349Z,8.13
2023-12-10T08:29:25.268Z,8.02
2023-12-10T08:31:53.180Z,8.10
2023-12-10T08:34:20.215Z,8.27
2023-12-10T08:36:47.059Z,8.25
2023-12-10T08:39:14.761Z,8.43
2023-12-10T08:41:42.585Z,8.40
2023-12-10T08:44:12.955Z,8.32
2023-12-10T08:46:40.076Z,8.57
2023-12-10T08:49:10.138Z,7.88
2023-12-10T08:51:38.604Z,8.43
2023-12-10T08:54:07.008Z,9.27
2023-12-10T08:56:34.858Z,9.20
2023-12-10T08:59:03.025Z,9.13
2023-12-10T09:01:31.573Z,9.15
2023-12-10T09:04:01.086Z,9.38
2023-12-10T09:06:28.515Z,9.48
2023-12-10T09:08:55.504Z,9.48
2023-12-10T09:11:22.777Z,10.80
2023-12-10T09:13:50.862Z,10.00
2023-12-10T09:16:20.377Z,10.13
2023-12-10T09:18:47.397Z,11.30
2023-12-10T09:21:14.711Z,10.82
2023-12-10T09:23:42.455Z,11.23
2023-12-10T09:26:09.555Z,11.82
2023-12-10T09:28:38.139Z,11.32
2023-12-10T09:31:05.121Z,11.30
2023-12-10T09:33:33.381Z,11.02
2023-12-10T09:36:01.147Z,12.05
2023-12-10T09:38:28.505Z,11.68
2023-12-10T09:40:55.558Z,13.57
2023-12-10T09:43:23.173Z,15.40
2023-12-10T09:45:51.431Z,14.70
2023-12-10T09:48:19.526Z,14.27
2023-12-10T09:50:46.742Z,13.32
2023-12-10T09:53:15.753Z,14.65
2023-12-10T09:55:43.780Z,15.02
2023-12-10T09:58:10.797Z,13.23
2023-12-10T10:00:39.317Z,13.98
2023-12-10T10:03:08.371Z,12.80
2023-12-10T10:05:37.338Z,13.65
2023-12-10T10:08:05.008Z,14.18
2023-12-10T10:10:32.831Z,12.57
2023-12-10T10:13:01.444Z,14.68
2023-12-10T10:15:30.640Z,13.65
2023-12-10T10:17:59.116Z,14.27
2023-12-10T10:20:27.588Z,13.88
2023-12-10T10:22:58.605Z,14.32
2023-12-10T10:25:26.006Z,15.88
2023-12-10T10:27:53.901Z,16.30
2023-12-10T10:30:21.825Z,15.98
2023-12-10T10:32:50.357Z,14.75
2023-12-10T10:35:17.699Z,14.73
2023-12-10T10:37:44.759Z,15.93
2023-12-10T10:40:12.341Z,15.10
2023-12-10T10:42:39.787Z,16.48
2023-12-10T10:45:10.202Z,15.90
2023-12-10T10:47:38.539Z,15.70
2023-12-10T10:50:21.529Z,15.98
2023-12-10T10:52:53.619Z,16.08
2023-12-10T10:55:22.052Z,14.88
2023-12-10T10:57:49.091Z,15.30
2023-12-10T11:00:21.828Z,16.25
2023-12-10T11:02:54.284Z,17.77
2023-12-10T11:05:36.469Z,16.73
2023-12-10T11:08:09.748Z,17.43
2023-12-10T11:10:43.449Z,16.27
2023-12-10T11:13:10.514Z,16.23
2023-12-10T11:15:38.046Z,16.30
2023-12-10T11:18:08.004Z,16.17
2023-12-10T11:20:48.519Z,15.82
2023-12-10T11:23:18.605Z,16.98
2023-12-10T11:25:48.235Z,17.38
2023-12-10T11:28:18.787Z,18.85
2023-12-10T11:30:50.867Z,19.25
2023-12-10T11:33:20.076Z,16.73
2023-12-10T11:36:17.514Z,17.08
2023-12-10T11:38:37.818Z,16.83
2023-12-10T11:41:05.329Z,16.65
2023-12-10T11:43:33.248Z,15.20
2023-12-10T11:46:00.461Z,16.13
2023-12-10T11:48:28.413Z,15.95
2023-12-10T11:50:56.801Z,17.67
2023-12-10T11:53:24.957Z,15.50
2023-12-10T11:55:53.781Z,17.02
2023-12-10T11:58:28.530Z,16.85
2023-12-10T12:01:06.558Z,15.63
2023-12-10T12:03:36.179Z,14.98
2023-12-10T12:06:05.697Z,14.35
2023-12-10T12:08:33.384Z,14.15
2023-12-10T12:11:00.722Z,13.88
2023-12-10T12:13:32.078Z,13.70
2023-12-10T12:15:59.142Z,14.27
2023-12-10T12:18:28.988Z,13.85
2023-12-10T12:20:56.156Z,13.20
2023-12-10T12:23:23.077Z,13.43
2023-12-10T12:25:51.011Z,14.43
2023-12-10T12:28:21.448Z,14.30
2023-12-10T12:30:48.378Z,13.77
2023-12-10T12:33:17.377Z,13.88
2023-12-10T12:35:44.390Z,13.10
2023-12-10T12:38:12.432Z,12.55
2023-12-10T12:40:39.281Z,12.90
2023-12-10T12:43:06.294Z,12.82
2023-12-10T12:45:34.851Z,12.90
2023-12-10T12:48:02.272Z,12.77
2023-12-10T12:50:31.657Z,13.00
2023-12-10T12:53:00.807Z,12.38
2023-12-10T12:55:28.613Z,13.70
2023-12-10T12:57:56.242Z,12.15
2023-12-10T13:00:23.771Z,12.70
2023-12-10T13:02:51.236Z,12.48
2023-12-10T13:05:18.294Z,12.75
2023-12-10T13:07:47.197Z,12.38
2023-12-10T13:10:15.300Z,12.60
2023-12-10T13:12:43.235Z,12.38
2023-12-10T13:15:10.861Z,12.75
2023-12-10T13:17:39.813Z,12.32
2023-12-10T13:20:07.947Z,13.50
2023-12-10T13:22:35.202Z,12.68
2023-12-10T13:25:06.280Z,13.25
2023-12-10T13:27:35.298Z,12.95
2023-12-10T13:30:02.332Z,11.93
2023-12-10T13:32:29.252Z,12.55
2023-12-10T13:34:56.681Z,12.90
2023-12-10T13:37:23.805Z,12.63
2023-12-10T13:39:51.715Z,13.15
2023-12-10T13:42:22.016Z,12.63
2023-12-10T13:44:49.001Z,12.50
2023-12-10T13:47:16.635Z,14.05
2023-12-10T13:49:44.669Z,15.27
2023-12-10T13:52:13.183Z,13.38
2023-12-10T13:54:40.439Z,12.40
2023-12-10T13:57:07.310Z,10.10
2023-12-10T13:59:35.366Z,10.32
2023-12-10T14:02:10.061Z,10.15
2023-12-10T14:04:37.070Z,10.48
2023-12-10T14:07:04.649Z,12.00
2023-12-10T14:09:33.921Z,11.30
2023-12-10T14:12:01.739Z,12.73
2023-12-10T14:14:28.743Z,13.23
2023-12-10T14:16:55.888Z,12.68
2023-12-10T14:19:23.061Z,13.20
2023-12-10T14:21:54.165Z,12.30
2023-12-10T14:24:22.387Z,11.82
2023-12-10T14:26:49.821Z,10.13
2023-12-10T14:29:17.444Z,10.05
2023-12-10T14:31:48.623Z,10.40
2023-12-10T14:34:15.849Z,12.15
2023-12-10T14:36:43.609Z,13.27
2023-12-10T14:39:11.664Z,17.30
2023-12-10T14:41:40.063Z,20.95
2023-12-10T14:44:07.709Z,18.30
2023-12-10T14:49:19.338Z,20.20
2023-12-10T14:51:48.315Z,20.95
2023-12-10T14:54:17.489Z,15.05
2023-12-10T14:56:44.657Z,13.77
2023-12-10T14:59:12.638Z,10.98
2023-12-10T15:01:39.654Z,10.63
2023-12-10T15:04:07.159Z,10.75
2023-12-10T15:06:34.190Z,10.38
2023-12-10T15:09:03.581Z,10.40
2023-12-10T15:11:33.539Z,16.70
2023-12-10T15:14:00.856Z,28.30
2023-12-10T15:16:27.723Z,22.60
2023-12-10T15:18:55.160Z,20.30
2023-12-10T15:21:23.434Z,16.45
2023-12-10T15:23:50.642Z,14.98
2023-12-10T15:26:19.576Z,14.50
2023-12-10T15:28:47.843Z,14.77
2023-12-10T15:31:15.328Z,15.57
2023-12-10T15:33:42.634Z,17.90
2023-12-10T15:36:14.737Z,17.48
2023-12-10T15:38:42.321Z,18.45
2023-12-10T15:41:09.878Z,21.48
2023-12-10T15:43:36.948Z,21.90
2023-12-10T15:46:04.297Z,23.30
2023-12-10T15:48:32.369Z,27.02
2023-12-10T15:51:02.995Z,26.75
2023-12-10T15:53:32.102Z,26.58
2023-12-10T15:55:59.397Z,26.63
2023-12-10T15:58:27.893Z,27.33
2023-12-10T16:00:54.967Z,31.10
2023-12-10T16:03:23.798Z,30.63
2023-12-10T16:05:51.639Z,29.63
2023-12-10T16:08:20.826Z,28.70
2023-12-10T16:10:48.244Z,27.25
2023-12-10T16:13:20.357Z,24.85
2023-12-10T16:15:49.837Z,24.15
2023-12-10T16:18:16.854Z,21.80
2023-12-10T16:20:46.416Z,22.33
2023-12-10T16:23:15.826Z,23.80
2023-12-10T16:25:42.613Z,23.65
2023-12-10T16:28:10.839Z,21.38
2023-12-10T16:30:40.129Z,20.02
2023-12-10T16:33:07.148Z,19.73
2023-12-10T16:35:34.001Z,18.30
2023-12-10T16:38:02.727Z,18.38
2023-12-10T16:40:29.976Z,17.67
2023-12-10T16:43:00.076Z,15.32
2023-12-10T16:45:28.066Z,15.23
2023-12-10T16:47:56.499Z,16.30
2023-12-10T16:50:23.357Z,15.23
2023-12-10T16:52:52.503Z,15.55
2023-12-10T16:55:22.056Z,15.75
2023-12-10T16:57:50.389Z,16.65
2023-12-10T17:00:18.803Z,15.10
2023-12-10T17:02:46.803Z,15.57
2023-12-10T17:05:13.932Z,15.23
2023-12-10T17:07:43.248Z,14.30
2023-12-10T17:10:11.823Z,14.05
2023-12-10T17:12:39.739Z,14.13
2023-12-10T17:15:07.947Z,15.30
2023-12-10T17:17:35.547Z,14.30
2023-12-10T17:20:03.104Z,13.32
2023-12-10T17:22:30.123Z,12.73
2023-12-10T17:24:58.631Z,13.73
2023-12-10T17:27:25.655Z,12.95
2023-12-10T17:29:53.123Z,12.45
2023-12-10T17:32:19.983Z,12.73
2023-12-10T17:34:48.033Z,11.23
2023-12-10T17:37:14.839Z,10.60
2023-12-10T17:39:41.804Z,9.65
2023-12-10T17:42:10.955Z,9.50
2023-12-10T17:44:47.300Z,8.82
2023-12-10T17:47:21.826Z,8.35
2023-12-10T17:49:49.226Z,8.85
2023-12-10T17:52:16.746Z,8.77
2023-12-10T17:54:44.067Z,8.60
2023-12-10T17:57:12.773Z,8.30
2023-12-10T17:59:40.065Z,8.38
2023-12-10T18:02:07.969Z,7.47
2023-12-10T18:04:34.830Z,7.70
2023-12-10T18:07:01.952Z,7.88
2023-12-10T18:09:30.163Z,8.20
2023-12-10T18:11:58.273Z,8.07
2023-12-10T18:14:26.493Z,8.15
2023-12-10T18:16:53.823Z,9.07
2023-12-10T18:19:21.226Z,8.60
2023-12-10T18:21:49.656Z,8.07
2023-12-10T18:24:18.090Z,8.50
2023-12-10T18:26:48.954Z,8.45
2023-12-10T18:29:17.204Z,8.75
2023-12-10T18:31:46.248Z,9.18
2023-12-10T18:34:13.740Z,8.85
2023-12-10T18:36:41.137Z,8.43
2023-12-10T18:39:09.459Z,8.35
2023-12-10T18:41:36.464Z,9.55
2023-12-10T18:44:03.748Z,9.15
2023-12-10T18:46:31.990Z,9.50
2023-12-10T18:48:59.345Z,9.57
2023-12-10T18:51:26.348Z,9.70
2023-12-10T18:53:53.643Z,9.18
2023-12-10T18:56:21.905Z,9.27
2023-12-10T18:58:50.292Z,9.20
2023-12-10T19:01:17.606Z,8.95
2023-12-10T19:03:48.494Z,9.25
2023-12-10T19:06:15.981Z,9.52
2023-12-10T19:08:43.329Z,8.63
2023-12-10T19:11:13.832Z,8.00
2023-12-10T19:13:41.182Z,8.77
2023-12-10T19:16:08.586Z,8.18
2023-12-10T19:18:41.937Z,8.95
2023-12-10T19:23:42.081Z,8.85
2023-12-10T19:26:13.049Z,9.13
2023-12-10T19:28:40.271Z,7.82
2023-12-10T19:31:07.535Z,7.97
2023-12-10T19:33:35.302Z,8.30
2023-12-10T19:36:02.567Z,7.38
2023-12-10T19:38:29.515Z,7.75
2023-12-10T19:40:58.407Z,7.78
2023-12-10T19:43:26.445Z,7.70
2023-12-10T19:45:56.852Z,7.88
2023-12-10T19:48:26.385Z,7.80
2023-12-10T19:50:57.172Z,7.97
2023-12-10T19:53:24.390Z,8.20
2023-12-10T19:55:51.973Z,7.88
2023-12-10T19:58:19.407Z,8.10
2023-12-10T20:00:48.214Z,7.93
2023-12-10T20:03:18.779Z,7.25
2023-12-10T20:05:45.834Z,8.63
2023-12-10T20:08:12.751Z,8.27
2023-12-10T20:10:42.542Z,10.57
2023-12-10T20:13:11.825Z,10.60
2023-12-10T20:15:39.284Z,12.25
2023-12-10T20:18:06.822Z,12.00
2023-12-10T20:20:35.107Z,12.45
2023-12-10T20:23:02.068Z,12.52
2023-12-10T20:25:32.909Z,12.68
2023-12-10T20:28:03.279Z,12.27
2023-12-10T20:30:33.054Z,12.57
2023-12-10T20:33:00.538Z,12.20
2023-12-10T20:35:28.761Z,12.43
2023-12-10T20:38:00.501Z,10.15
2023-12-10T20:40:28.578Z,12.30
2023-12-10T20:42:57.700Z,10.93
2023-12-10T20:45:24.689Z,10.70
2023-12-10T20:47:52.646Z,11.27
2023-12-10T20:50:22.344Z,11.13
2023-12-10T20:52:49.604Z,11.60
2023-12-10T20:55:16.827Z,10.68
2023-12-10T20:57:45.065Z,11.10
2023-12-10T21:00:13.471Z,10.20
2023-12-10T21:02:40.683Z,11.35
2023-12-10T21:05:08.266Z,10.30
2023-12-10T21:07:35.729Z,10.52
2023-12-10T21:10:03.237Z,9.75
2023-12-10T21:12:30.577Z,9.02
2023-12-10T21:15:00.897Z,8.93
2023-12-10T21:17:29.175Z,8.90
2023-12-10T21:19:58.406Z,9.18
2023-12-10T21:22:26.387Z,9.35
2023-12-10T21:24:53.298Z,9.60
2023-12-10T21:27:20.198Z,9.02
2023-12-10T21:29:47.121Z,9.75
2023-12-10T21:32:16.119Z,9.45
2023-12-10T21:34:45.129Z,9.32
2023-12-10T21:37:12.960Z,8.50
2023-12-10T21:39:40.383Z,8.20
2023-12-10T21:42:07.648Z,8.50
2023-12-10T21:44:35.258Z,8.70
2023-12-10T21:47:02.535Z,7.80
2023-12-10T21:49:30.021Z,7.88
2023-12-10T21:51:57.431Z,7.28
2023-12-10T21:54:27.014Z,7.53
2023-12-10T21:56:54.493Z,6.57
2023-12-10T21:59:23.241Z,6.72
2023-12-10T22:01:50.999Z,6.97
2023-12-10T22:04:18.128Z,5.90
2023-12-10T22:06:46.232Z,6.47
2023-12-10T22:09:15.145Z,6.88
2023-12-10T22:11:44.307Z,6.55
2023-12-10T22:14:11.592Z,6.78
2023-12-10T22:16:39.978Z,6.40
2023-12-10T22:19:07.236Z,6.20
2023-12-10T22:21:35.914Z,6.65
2023-12-10T22:24:03.071Z,6.63
2023-12-10T22:26:32.508Z,7.13
2023-12-10T22:29:00.631Z,8.43
2023-12-10T22:31:27.975Z,9.60
2023-12-10T22:33:54.957Z,8.48
2023-12-10T22:36:22.794Z,8.10
2023-12-10T22:38:50.805Z,8.00
2023-12-10T22:41:17.696Z,8.07
2023-12-10T22:43:46.790Z,8.00
2023-12-10T22:46:13.710Z,7.50
2023-12-10T22:48:44.778Z,6.70
2023-12-10T22:51:12.218Z,6.35
2023-12-10T22:53:41.201Z,6.28
2023-12-10T22:56:08.441Z,5.88
2023-12-10T22:58:36.589Z,5.80
2023-12-10T23:01:05.008Z,5.93
2023-12-10T23:03:32.132Z,6.13
2023-12-10T23:05:58.925Z,5.65
2023-12-10T23:08:25.888Z,5.35
2023-12-10T23:10:53.054Z,5.60
2023-12-10T23:13:20.697Z,5.28
2023-12-10T23:16:15.494Z,4.70
2023-12-10T23:18:46.033Z,4.38
2023-12-10T23:21:13.477Z,4.93
2023-12-10T23:23:40.987Z,4.85
2023-12-10T23:26:07.786Z,4.72
2023-12-10T23:28:35.738Z,4.05
2023-12-10T23:31:03.838Z,4.32
2023-12-10T23:33:33.264Z,4.10
2023-12-10T23:36:00.783Z,4.68
2023-12-10T23:38:27.662Z,4.25
2023-12-10T23:40:54.591Z,4.38
2023-12-10T23:43:21.490Z,4.88
2023-12-10T23:45:50.031Z,5.28
2023-12-10T23:48:19.405Z,5.18
2023-12-10T23:50:47.027Z,6.00
2023-12-10T23:53:15.040Z,6.13
2023-12-10T23:55:41.905Z,7.43
2023-12-10T23:58:09.975Z,6.50
